sensor_id;sensor_type;location;lat;lon;timestamp;pressure;altitude;pressure_sealevel;temperature;humidity
56334;BME280;42240;53.626;55.886;2023-05-15T00:00:12;76479.69;;;-145.10;100.00
56334;BME280;42240;53.626;55.886;2023-05-15T00:01:49;76481.66;;;-145.10;100.00
56334;BME280;42240;53.626;55.886;2023-05-15T00:03:23;76505.38;;;-145.10;100.00
56334;BME280;42240;53.626;55.886;2023-05-15T00:04:58;76501.44;;;-145.10;100.00
56334;BME280;42240;53.626;55.886;2023-05-15T00:06:32;76489.56;;;-145.10;100.00
56334;BME280;42240;53.626;55.886;2023-05-15T00:08:06;76485.63;;;-145.10;100.00
56334;BME280;42240;53.626;55.886;2023-05-15T00:09:40;76493.53;;;-145.10;100.00
56334;BME280;42240;53.626;55.886;2023-05-15T00:11:13;76493.53;;;-145.10;100.00
56334;BME280;42240;53.626;55.886;2023-05-15T00:12:46;76489.56;;;-145.10;100.00
56334;BME280;42240;53.626;55.886;2023-05-15T00:14:20;76495.50;;;-145.10;100.00
56334;BME280;42240;53.626;55.886;2023-05-15T00:15:54;76501.44;;;-145.10;100.00
56334;BME280;42240;53.626;55.886;2023-05-15T00:17:27;76497.47;;;-145.10;100.00
56334;BME280;42240;53.626;55.886;2023-05-15T00:19:01;76501.44;;;-145.10;100.00
56334;BME280;42240;53.626;55.886;2023-05-15T00:20:35;76499.47;;;-145.10;100.00
56334;BME280;42240;53.626;55.886;2023-05-15T00:22:08;76499.47;;;-145.10;100.00
56334;BME280;42240;53.626;55.886;2023-05-15T00:23:42;76501.44;;;-145.10;100.00
56334;BME280;42240;53.626;55.886;2023-05-15T00:25:16;76537.03;;;-145.10;100.00
56334;BME280;42240;53.626;55.886;2023-05-15T00:26:52;76503.41;;;-145.10;100.00
56334;BME280;42240;53.626;55.886;2023-05-15T00:28:25;76501.44;;;-145.10;100.00
56334;BME280;42240;53.626;55.886;2023-05-15T00:30:01;76501.44;;;-145.10;100.00
56334;BME280;42240;53.626;55.886;2023-05-15T00:31:34;76497.47;;;-145.10;100.00
56334;BME280;42240;53.626;55.886;2023-05-15T00:33:08;76491.53;;;-145.10;100.00
56334;BME280;42240;53.626;55.886;2023-05-15T00:34:42;76487.59;;;-145.10;100.00
56334;BME280;42240;53.626;55.886;2023-05-15T00:36:16;76485.63;;;-145.10;100.00
56334;BME280;42240;53.626;55.886;2023-05-15T00:37:50;76489.56;;;-145.10;100.00
56334;BME280;42240;53.626;55.886;2023-05-15T00:39:23;76487.59;;;-145.10;100.00
56334;BME280;42240;53.626;55.886;2023-05-15T00:41:00;76475.72;;;-145.10;100.00
56334;BME280;42240;53.626;55.886;2023-05-15T00:42:34;76473.75;;;-145.10;100.00
56334;BME280;42240;53.626;55.886;2023-05-15T00:44:09;76469.78;;;-145.10;100.00
56334;BME280;42240;53.626;55.886;2023-05-15T00:45:44;76450.03;;;-145.10;100.00
56334;BME280;42240;53.626;55.886;2023-05-15T00:47:19;76450.03;;;-145.10;100.00
56334;BME280;42240;53.626;55.886;2023-05-15T00:48:55;76444.09;;;-145.10;100.00
56334;BME280;42240;53.626;55.886;2023-05-15T00:50:31;76442.13;;;-145.10;100.00
56334;BME280;42240;53.626;55.886;2023-05-15T00:52:05;76434.19;;;-145.10;100.00
56334;BME280;42240;53.626;55.886;2023-05-15T00:53:42;76428.28;;;-145.10;100.00
56334;BME280;42240;53.626;55.886;2023-05-15T00:55:16;76396.63;;;-145.10;100.00
56334;BME280;42240;53.626;55.886;2023-05-15T00:56:50;76351.16;;;-145.10;100.00
56334;BME280;42240;53.626;55.886;2023-05-15T00:58:26;76301.72;;;-145.10;100.00
56334;BME280;42240;53.626;55.886;2023-05-15T01:00:04;76266.13;;;-145.10;100.00
56334;BME280;42240;53.626;55.886;2023-05-15T01:01:44;76240.44;;;-145.10;100.00
56334;BME280;42240;53.626;55.886;2023-05-15T01:03:18;76208.78;;;-145.10;100.00
56334;BME280;42240;53.626;55.886;2023-05-15T01:04:52;76228.56;;;-145.10;100.00
56334;BME280;42240;53.626;55.886;2023-05-15T01:06:28;76218.69;;;-145.10;100.00
56334;BME280;42240;53.626;55.886;2023-05-15T01:08:20;76216.72;;;-145.10;100.00
56334;BME280;42240;53.626;55.886;2023-05-15T01:09:56;76187.03;;;-145.10;100.00
56334;BME280;42240;53.626;55.886;2023-05-15T01:11:33;76155.41;;;-145.10;100.00
56334;BME280;42240;53.626;55.886;2023-05-15T01:13:08;76131.69;;;-145.10;100.00
56334;BME280;42240;53.626;55.886;2023-05-15T01:14:44;76133.66;;;-145.10;100.00
56334;BME280;42240;53.626;55.886;2023-05-15T01:16:20;76090.16;;;-145.10;100.00
56334;BME280;42240;53.626;55.886;2023-05-15T01:17:54;76040.75;;;-145.10;100.00
56334;BME280;42240;53.626;55.886;2023-05-15T01:19:29;76030.84;;;-145.10;100.00
56334;BME280;42240;53.626;55.886;2023-05-15T01:23:05;75935.94;;;-145.10;100.00
56334;BME280;42240;53.626;55.886;2023-05-15T01:28:45;75837.09;;;-145.10;100.00
56334;BME280;42240;53.626;55.886;2023-05-15T01:30:28;75793.59;;;-145.10;100.00
56334;BME280;42240;53.626;55.886;2023-05-15T01:32:10;75765.94;;;-145.10;100.00
56334;BME280;42240;53.626;55.886;2023-05-15T01:33:55;75773.84;;;-145.10;100.00
56334;BME280;42240;53.626;55.886;2023-05-15T01:36:08;75773.84;;;-145.10;100.00
56334;BME280;42240;53.626;55.886;2023-05-15T01:37:47;75744.19;;;-145.10;100.00
56334;BME280;42240;53.626;55.886;2023-05-15T01:39:23;75714.53;;;-145.10;100.00
56334;BME280;42240;53.626;55.886;2023-05-15T01:43:07;75657.19;;;-145.10;100.00
56334;BME280;42240;53.626;55.886;2023-05-15T01:44:50;75611.72;;;-145.10;100.00
56334;BME280;42240;53.626;55.886;2023-05-15T01:46:26;75584.06;;;-145.10;100.00
56334;BME280;42240;53.626;55.886;2023-05-15T01:48:06;75578.13;;;-145.10;100.00
56334;BME280;42240;53.626;55.886;2023-05-15T01:49:43;75580.09;;;-145.10;98.87
56334;BME280;42240;53.626;55.886;2023-05-15T01:51:19;75540.56;;;-145.10;99.30
56334;BME280;42240;53.626;55.886;2023-05-15T01:52:56;75516.84;;;-145.10;98.47
56334;BME280;42240;53.626;55.886;2023-05-15T01:54:31;75495.09;;;-145.10;95.79
56334;BME280;42240;53.626;55.886;2023-05-15T01:56:06;75473.34;;;-145.10;94.04
56334;BME280;42240;53.626;55.886;2023-05-15T01:57:41;75514.84;;;-145.10;93.21
56334;BME280;42240;53.626;55.886;2023-05-15T01:59:18;75451.59;;;-145.10;92.21
56334;BME280;42240;53.626;55.886;2023-05-15T02:00:54;75431.84;;;-145.10;91.04
56334;BME280;42240;53.626;55.886;2023-05-15T02:02:28;75394.28;;;-145.10;89.89
56334;BME280;42240;53.626;55.886;2023-05-15T02:04:03;75364.63;;;-145.10;87.28
56334;BME280;42240;53.626;55.886;2023-05-15T02:05:37;75342.88;;;-145.10;86.41
56334;BME280;42240;53.626;55.886;2023-05-15T02:07:11;75323.09;;;-145.10;85.04
56334;BME280;42240;53.626;55.886;2023-05-15T02:08:47;75346.81;;;-145.10;80.72
56334;BME280;42240;53.626;55.886;2023-05-15T02:10:21;75368.56;;;-145.10;81.26
56334;BME280;42240;53.626;55.886;2023-05-15T02:12:01;75439.75;;;-145.10;81.66
56334;BME280;42240;53.626;55.886;2023-05-15T02:13:37;75427.88;;;-145.10;81.28
56334;BME280;42240;53.626;55.886;2023-05-15T02:15:13;75469.38;;;-145.10;80.17
56334;BME280;42240;53.626;55.886;2023-05-15T02:16:47;75469.38;;;-145.10;81.62
56334;BME280;42240;53.626;55.886;2023-05-15T02:18:21;75419.97;;;-145.10;81.13
56334;BME280;42240;53.626;55.886;2023-05-15T02:19:55;75303.34;;;-145.10;78.23
56334;BME280;42240;53.626;55.886;2023-05-15T02:21:28;75275.66;;;-145.10;74.14
56334;BME280;42240;53.626;55.886;2023-05-15T02:23:02;75224.28;;;-145.10;72.68
56334;BME280;42240;53.626;55.886;2023-05-15T02:24:36;75170.91;;;-145.10;71.12
56334;BME280;42240;53.626;55.886;2023-05-15T02:26:25;75153.09;;;-145.10;67.23
56334;BME280;42240;53.626;55.886;2023-05-15T02:28:04;75230.19;;;-145.10;64.15
56334;BME280;42240;53.626;55.886;2023-05-15T02:31:50;75182.75;;;-145.10;66.20
56334;BME280;42240;53.626;55.886;2023-05-15T02:37:25;75178.81;;;-145.10;64.93
56334;BME280;42240;53.626;55.886;2023-05-15T02:39:00;75145.19;;;-145.10;65.01
56334;BME280;42240;53.626;55.886;2023-05-15T02:40:46;75157.06;;;-145.10;63.84
56334;BME280;42240;53.626;55.886;2023-05-15T02:42:20;75097.75;;;-145.10;62.32
56334;BME280;42240;53.626;55.886;2023-05-15T02:43:55;75123.47;;;-145.10;60.99
56334;BME280;42240;53.626;55.886;2023-05-15T02:45:29;75085.91;;;-145.10;60.27
56334;BME280;42240;53.626;55.886;2023-05-15T02:47:04;75036.47;;;-145.10;59.43
56334;BME280;42240;53.626;55.886;2023-05-15T02:48:40;75014.75;;;-145.10;57.67
56334;BME280;42240;53.626;55.886;2023-05-15T02:50:14;74971.25;;;-145.10;53.40
56334;BME280;42240;53.626;55.886;2023-05-15T02:51:48;74896.16;;;-145.10;52.46
56334;BME280;42240;53.626;55.886;2023-05-15T02:53:22;75000.91;;;-145.10;50.86
56334;BME280;42240;53.626;55.886;2023-05-15T02:54:55;74983.13;;;-145.10;51.62
56334;BME280;42240;53.626;55.886;2023-05-15T02:56:29;74872.44;;;-145.10;49.47
56334;BME280;42240;53.626;55.886;2023-05-15T02:58:03;74832.91;;;-145.10;48.49
56334;BME280;42240;53.626;55.886;2023-05-15T02:59:37;74900.09;;;-145.10;46.98
56334;BME280;42240;53.626;55.886;2023-05-15T03:01:10;74765.69;;;-145.10;45.70
56334;BME280;42240;53.626;55.886;2023-05-15T03:02:44;74848.72;;;-145.10;45.08
56334;BME280;42240;53.626;55.886;2023-05-15T03:04:19;74726.16;;;-145.10;45.56
56334;BME280;42240;53.626;55.886;2023-05-15T03:05:53;74740.00;;;-145.10;43.71
56334;BME280;42240;53.626;55.886;2023-05-15T03:07:27;74803.25;;;-145.10;43.79
56334;BME280;42240;53.626;55.886;2023-05-15T03:09:00;74819.06;;;-145.10;43.24
56334;BME280;42240;53.626;55.886;2023-05-15T03:10:34;74734.06;;;-145.10;43.88
56334;BME280;42240;53.626;55.886;2023-05-15T03:12:09;74743.97;;;-145.10;42.60
56334;BME280;42240;53.626;55.886;2023-05-15T03:13:43;74647.09;;;-145.10;44.44
56334;BME280;42240;53.626;55.886;2023-05-15T03:15:16;74597.69;;;-145.10;42.68
56334;BME280;42240;53.626;55.886;2023-05-15T03:16:49;74633.28;;;-145.10;42.95
56334;BME280;42240;53.626;55.886;2023-05-15T03:18:23;74726.16;;;-145.10;42.42
56334;BME280;42240;53.626;55.886;2023-05-15T03:19:56;74789.41;;;-145.10;43.95
56334;BME280;42240;53.626;55.886;2023-05-15T03:21:29;74939.63;;;-145.10;45.19
56334;BME280;42240;53.626;55.886;2023-05-15T03:23:03;74900.09;;;-145.10;46.88
56334;BME280;42240;53.626;55.886;2023-05-15T03:24:37;74773.59;;;-145.10;46.32
56334;BME280;42240;53.626;55.886;2023-05-15T03:26:11;74785.47;;;-145.10;45.82
56334;BME280;42240;53.626;55.886;2023-05-15T03:27:44;74868.47;;;-145.10;45.43
56334;BME280;42240;53.626;55.886;2023-05-15T03:29:18;74781.50;;;-145.10;46.53
56334;BME280;42240;53.626;55.886;2023-05-15T03:30:52;74789.41;;;-145.10;45.33
56334;BME280;42240;53.626;55.886;2023-05-15T03:32:26;74769.66;;;-145.10;44.62
56334;BME280;42240;53.626;55.886;2023-05-15T03:33:59;74686.63;;;-145.10;43.34
56334;BME280;42240;53.626;55.886;2023-05-15T03:35:33;74560.16;;;-145.10;42.50
56334;BME280;42240;53.626;55.886;2023-05-15T03:37:07;74688.63;;;-145.10;40.89
56334;BME280;42240;53.626;55.886;2023-05-15T03:38:41;74615.47;;;-145.10;40.38
56334;BME280;42240;53.626;55.886;2023-05-15T03:40:16;74658.97;;;-145.10;41.73
56334;BME280;42240;53.626;55.886;2023-05-15T03:41:50;74550.25;;;-145.10;41.88
56334;BME280;42240;53.626;55.886;2023-05-15T03:43:27;74619.44;;;-145.10;40.40
56334;BME280;42240;53.626;55.886;2023-05-15T03:45:00;74558.16;;;-145.10;40.40
56334;BME280;42240;53.626;55.886;2023-05-15T03:46:33;74425.75;;;-145.10;39.46
56334;BME280;42240;53.626;55.886;2023-05-15T03:48:07;74374.38;;;-145.10;39.62
56334;BME280;42240;53.626;55.886;2023-05-15T03:49:41;74427.72;;;-145.10;37.04
56334;BME280;42240;53.626;55.886;2023-05-15T03:51:14;74512.72;;;-145.10;37.67
56334;BME280;42240;53.626;55.886;2023-05-15T03:52:48;74627.34;;;-145.10;39.02
56334;BME280;42240;53.626;55.886;2023-05-15T03:54:23;74508.75;;;-145.10;39.11
56334;BME280;42240;53.626;55.886;2023-05-15T03:55:58;74413.91;;;-145.10;38.51
56334;BME280;42240;53.626;55.886;2023-05-15T03:57:31;74376.34;;;-145.10;36.90
56334;BME280;42240;53.626;55.886;2023-05-15T03:59:05;74271.59;;;-145.10;36.08
56334;BME280;42240;53.626;55.886;2023-05-15T04:00:39;74232.06;;;-145.10;36.19
56334;BME280;42240;53.626;55.886;2023-05-15T04:02:13;74243.94;;;-145.10;35.84
56334;BME280;42240;53.626;55.886;2023-05-15T04:03:47;74239.97;;;-145.10;34.75
56334;BME280;42240;53.626;55.886;2023-05-15T04:05:21;74158.97;;;-145.10;35.63
56334;BME280;42240;53.626;55.886;2023-05-15T04:06:55;74216.28;;;-145.10;34.77
56334;BME280;42240;53.626;55.886;2023-05-15T04:08:28;74196.50;;;-145.10;34.57
56334;BME280;42240;53.626;55.886;2023-05-15T04:10:02;74121.41;;;-145.10;35.54
56334;BME280;42240;53.626;55.886;2023-05-15T04:11:37;74081.88;;;-145.10;33.90
56334;BME280;42240;53.626;55.886;2023-05-15T04:13:10;74075.97;;;-145.10;33.55
56334;BME280;42240;53.626;55.886;2023-05-15T04:14:44;74117.47;;;-145.10;32.71
56334;BME280;42240;53.626;55.886;2023-05-15T04:16:18;74236.03;;;-145.10;33.76
56334;BME280;42240;53.626;55.886;2023-05-15T04:17:52;74198.47;;;-145.10;33.42
56334;BME280;42240;53.626;55.886;2023-05-15T04:19:26;74125.38;;;-145.10;33.25
56334;BME280;42240;53.626;55.886;2023-05-15T04:21:00;74113.50;;;-145.10;33.36
56334;BME280;42240;53.626;55.886;2023-05-15T04:22:33;74273.59;;;-145.10;33.43
56334;BME280;42240;53.626;55.886;2023-05-15T04:24:07;74427.72;;;-145.10;34.33
56334;BME280;42240;53.626;55.886;2023-05-15T04:25:41;74409.94;;;-145.10;34.50
56334;BME280;42240;53.626;55.886;2023-05-15T04:27:18;74289.38;;;-145.10;34.11
56334;BME280;42240;53.626;55.886;2023-05-15T04:28:52;74445.50;;;-145.10;34.23
56334;BME280;42240;53.626;55.886;2023-05-15T04:30:35;74516.66;;;-145.10;34.97
56334;BME280;42240;53.626;55.886;2023-05-15T04:32:09;74487.03;;;-145.10;35.30
56334;BME280;42240;53.626;55.886;2023-05-15T04:33:44;74449.47;;;-145.10;35.19
56334;BME280;42240;53.626;55.886;2023-05-15T04:35:18;74251.84;;;-145.10;35.30
56334;BME280;42240;53.626;55.886;2023-05-15T04:36:52;74224.19;;;-145.10;33.78
56334;BME280;42240;53.626;55.886;2023-05-15T04:38:25;74129.31;;;-145.10;33.80
56334;BME280;42240;53.626;55.886;2023-05-15T04:39:59;74208.38;;;-145.10;32.96
56334;BME280;42240;53.626;55.886;2023-05-15T04:41:35;74322.97;;;-145.10;32.83
56334;BME280;42240;53.626;55.886;2023-05-15T04:43:08;74392.16;;;-145.10;34.28
56334;BME280;42240;53.626;55.886;2023-05-15T04:44:42;74413.91;;;-145.10;34.36
56334;BME280;42240;53.626;55.886;2023-05-15T04:46:16;74271.59;;;-145.10;33.82
56334;BME280;42240;53.626;55.886;2023-05-15T04:47:50;74196.50;;;-145.10;32.89
56334;BME280;42240;53.626;55.886;2023-05-15T04:49:23;74153.03;;;-145.10;32.89
56334;BME280;42240;53.626;55.886;2023-05-15T04:50:57;74321.00;;;-145.10;32.70
56334;BME280;42240;53.626;55.886;2023-05-15T04:52:31;74214.28;;;-145.10;34.14
56334;BME280;42240;53.626;55.886;2023-05-15T04:54:04;74155.00;;;-145.10;33.25
56334;BME280;42240;53.626;55.886;2023-05-15T04:55:39;74113.50;;;-145.10;32.45
56334;BME280;42240;53.626;55.886;2023-05-15T04:57:12;74200.47;;;-145.10;32.90
56334;BME280;42240;53.626;55.886;2023-05-15T04:58:46;74121.41;;;-145.10;33.27
56334;BME280;42240;53.626;55.886;2023-05-15T05:00:23;74156.97;;;-145.10;32.37
56334;BME280;42240;53.626;55.886;2023-05-15T05:01:57;74180.69;;;-145.10;33.07
56334;BME280;42240;53.626;55.886;2023-05-15T05:03:31;74196.50;;;-145.10;32.46
56334;BME280;42240;53.626;55.886;2023-05-15T05:05:05;74103.63;;;-145.10;32.74
56334;BME280;42240;53.626;55.886;2023-05-15T05:06:39;74279.50;;;-145.10;32.67
56334;BME280;42240;53.626;55.886;2023-05-15T05:08:13;74287.41;;;-145.10;32.72
56334;BME280;42240;53.626;55.886;2023-05-15T05:09:46;74123.38;;;-145.10;33.01
56334;BME280;42240;53.626;55.886;2023-05-15T05:11:20;74046.31;;;-145.10;31.95
56334;BME280;42240;53.626;55.886;2023-05-15T05:12:54;74226.16;;;-145.10;32.10
56334;BME280;42240;53.626;55.886;2023-05-15T05:14:27;74188.59;;;-145.10;32.36
56334;BME280;42240;53.626;55.886;2023-05-15T05:16:00;74344.72;;;-145.10;32.93
56334;BME280;42240;53.626;55.886;2023-05-15T05:17:35;74271.59;;;-145.10;32.54
56334;BME280;42240;53.626;55.886;2023-05-15T05:19:08;74279.50;;;-145.10;32.60
56334;BME280;42240;53.626;55.886;2023-05-15T05:20:44;74208.38;;;-145.10;32.17
56334;BME280;42240;53.626;55.886;2023-05-15T05:22:18;74232.06;;;-145.10;32.51
56334;BME280;42240;53.626;55.886;2023-05-15T05:23:52;74322.97;;;-145.10;32.28
56334;BME280;42240;53.626;55.886;2023-05-15T05:25:25;74334.84;;;-145.10;32.88
56334;BME280;42240;53.626;55.886;2023-05-15T05:27:03;74309.16;;;-145.10;32.71
56334;BME280;42240;53.626;55.886;2023-05-15T05:28:37;74311.13;;;-145.10;32.50
56334;BME280;42240;53.626;55.886;2023-05-15T05:30:11;74322.97;;;-145.10;32.85
56334;BME280;42240;53.626;55.886;2023-05-15T05:31:45;74303.22;;;-145.10;32.92
56334;BME280;42240;53.626;55.886;2023-05-15T05:33:19;74164.88;;;-145.10;32.89
56334;BME280;42240;53.626;55.886;2023-05-15T05:34:53;74097.69;;;-145.10;32.68
56334;BME280;42240;53.626;55.886;2023-05-15T05:36:26;74141.16;;;-145.10;31.36
56334;BME280;42240;53.626;55.886;2023-05-15T05:37:59;74174.78;;;-145.10;31.94
56334;BME280;42240;53.626;55.886;2023-05-15T05:39:33;74184.66;;;-145.10;31.34
56334;BME280;42240;53.626;55.886;2023-05-15T05:41:12;74113.50;;;-145.10;31.61
56334;BME280;42240;53.626;55.886;2023-05-15T05:42:45;74188.59;;;-145.10;31.31
56334;BME280;42240;53.626;55.886;2023-05-15T05:44:18;74075.97;;;-145.10;31.34
56334;BME280;42240;53.626;55.886;2023-05-15T05:45:52;74212.31;;;-145.10;30.71
56334;BME280;42240;53.626;55.886;2023-05-15T05:47:25;74222.19;;;-145.10;31.29
56334;BME280;42240;53.626;55.886;2023-05-15T05:48:59;74311.13;;;-145.10;31.68
56334;BME280;42240;53.626;55.886;2023-05-15T05:50:33;74133.28;;;-145.10;31.29
56334;BME280;42240;53.626;55.886;2023-05-15T05:52:07;74042.38;;;-145.10;30.53
56334;BME280;42240;53.626;55.886;2023-05-15T05:53:41;74070.03;;;-145.10;30.64
56334;BME280;42240;53.626;55.886;2023-05-15T05:55:15;74091.78;;;-145.10;30.37
56334;BME280;42240;53.626;55.886;2023-05-15T05:56:51;74131.28;;;-145.10;29.79
56334;BME280;42240;53.626;55.886;2023-05-15T05:58:25;74263.69;;;-145.10;30.72
56334;BME280;42240;53.626;55.886;2023-05-15T05:59:59;74239.97;;;-145.10;31.10
56334;BME280;42240;53.626;55.886;2023-05-15T06:01:33;74336.81;;;-145.10;31.20
56334;BME280;42240;53.626;55.886;2023-05-15T06:03:06;74212.31;;;-145.10;31.33
56334;BME280;42240;53.626;55.886;2023-05-15T06:04:39;74234.06;;;-145.10;31.30
56334;BME280;42240;53.626;55.886;2023-05-15T06:06:13;74334.84;;;-145.10;31.96
56334;BME280;42240;53.626;55.886;2023-05-15T06:07:46;74212.31;;;-145.10;31.76
56334;BME280;42240;53.626;55.886;2023-05-15T06:09:20;74338.78;;;-145.10;32.25
56334;BME280;42240;53.626;55.886;2023-05-15T06:10:53;74273.59;;;-145.10;32.36
56334;BME280;42240;53.626;55.886;2023-05-15T06:12:26;74137.22;;;-145.10;31.58
56334;BME280;42240;53.626;55.886;2023-05-15T06:14:00;74127.34;;;-145.10;30.59
56334;BME280;42240;53.626;55.886;2023-05-15T06:15:33;74048.28;;;-145.10;31.29
56334;BME280;42240;53.626;55.886;2023-05-15T06:17:06;73989.00;;;-145.10;31.50
56334;BME280;42240;53.626;55.886;2023-05-15T06:18:40;73906.00;;;-145.10;31.20
56334;BME280;42240;53.626;55.886;2023-05-15T06:20:14;74000.88;;;-145.10;30.26
56334;BME280;42240;53.626;55.886;2023-05-15T06:21:47;74020.63;;;-145.10;30.54
56334;BME280;42240;53.626;55.886;2023-05-15T06:23:21;74180.69;;;-145.10;30.14
56334;BME280;42240;53.626;55.886;2023-05-15T06:24:55;74202.44;;;-145.10;30.35
56334;BME280;42240;53.626;55.886;2023-05-15T06:26:29;74168.84;;;-145.10;30.60
56334;BME280;42240;53.626;55.886;2023-05-15T06:28:02;74214.28;;;-145.10;31.49
56334;BME280;42240;53.626;55.886;2023-05-15T06:29:35;74153.03;;;-145.10;31.77
56334;BME280;42240;53.626;55.886;2023-05-15T06:31:09;74204.41;;;-145.10;31.54
56334;BME280;42240;53.626;55.886;2023-05-15T06:32:42;74204.41;;;-145.10;31.13
56334;BME280;42240;53.626;55.886;2023-05-15T06:34:15;74319.03;;;-145.10;31.93
56334;BME280;42240;53.626;55.886;2023-05-15T06:35:49;74344.72;;;-145.10;31.82
56334;BME280;42240;53.626;55.886;2023-05-15T06:37:22;74332.88;;;-145.10;31.85
56334;BME280;42240;53.626;55.886;2023-05-15T06:38:56;74307.19;;;-145.10;31.88
56334;BME280;42240;53.626;55.886;2023-05-15T06:40:29;74238.00;;;-145.10;31.62
56334;BME280;42240;53.626;55.886;2023-05-15T06:42:03;74279.50;;;-145.10;31.00
56334;BME280;42240;53.626;55.886;2023-05-15T06:43:39;74297.28;;;-145.10;31.55
56334;BME280;42240;53.626;55.886;2023-05-15T06:45:12;74259.75;;;-145.10;31.71
56334;BME280;42240;53.626;55.886;2023-05-15T06:46:46;74291.38;;;-145.10;31.53
56334;BME280;42240;53.626;55.886;2023-05-15T06:48:19;74271.59;;;-145.10;31.97
56334;BME280;42240;53.626;55.886;2023-05-15T06:49:53;74309.16;;;-145.10;32.10
56334;BME280;42240;53.626;55.886;2023-05-15T06:51:27;74247.88;;;-145.10;32.14
56334;BME280;42240;53.626;55.886;2023-05-15T06:53:00;74232.06;;;-145.10;32.25
56334;BME280;42240;53.626;55.886;2023-05-15T06:54:34;74182.69;;;-145.10;32.55
56334;BME280;42240;53.626;55.886;2023-05-15T06:56:07;74216.28;;;-145.10;31.60
56334;BME280;42240;53.626;55.886;2023-05-15T06:57:41;74370.41;;;-145.10;31.24
56334;BME280;42240;53.626;55.886;2023-05-15T06:59:14;74263.69;;;-145.10;32.51
56334;BME280;42240;53.626;55.886;2023-05-15T07:00:47;74247.88;;;-145.10;31.06
56334;BME280;42240;53.626;55.886;2023-05-15T07:02:21;74226.16;;;-145.10;31.19
56334;BME280;42240;53.626;55.886;2023-05-15T07:03:54;74249.88;;;-145.10;30.00
56334;BME280;42240;53.626;55.886;2023-05-15T07:05:30;74350.66;;;-145.10;30.75
56334;BME280;42240;53.626;55.886;2023-05-15T07:07:03;74431.69;;;-145.10;30.54
56334;BME280;42240;53.626;55.886;2023-05-15T07:08:36;74344.72;;;-145.10;30.68
56334;BME280;42240;53.626;55.886;2023-05-15T07:10:10;74354.59;;;-145.10;30.32
56334;BME280;42240;53.626;55.886;2023-05-15T07:11:43;74457.38;;;-145.10;30.12
56334;BME280;42240;53.626;55.886;2023-05-15T07:13:18;74409.94;;;-145.10;30.77
56334;BME280;42240;53.626;55.886;2023-05-15T07:14:52;74492.94;;;-145.10;30.25
56334;BME280;42240;53.626;55.886;2023-05-15T07:16:26;74465.28;;;-145.10;30.57
56334;BME280;42240;53.626;55.886;2023-05-15T07:18:00;74534.44;;;-145.10;30.24
56334;BME280;42240;53.626;55.886;2023-05-15T07:19:33;74512.72;;;-145.10;30.50
56334;BME280;42240;53.626;55.886;2023-05-15T07:21:07;74487.03;;;-145.10;30.41
56334;BME280;42240;53.626;55.886;2023-05-15T07:22:41;74560.16;;;-145.10;29.74
56334;BME280;42240;53.626;55.886;2023-05-15T07:24:27;74528.53;;;-145.10;29.73
56334;BME280;42240;53.626;55.886;2023-05-15T07:26:01;74526.53;;;-145.10;29.77
56334;BME280;42240;53.626;55.886;2023-05-15T07:27:36;74441.56;;;-145.10;30.10
56334;BME280;42240;53.626;55.886;2023-05-15T07:29:10;74526.53;;;-145.10;29.64
56334;BME280;42240;53.626;55.886;2023-05-15T07:30:44;74496.91;;;-145.10;29.79
56334;BME280;42240;53.626;55.886;2023-05-15T07:32:17;74556.19;;;-145.10;30.15
56334;BME280;42240;53.626;55.886;2023-05-15T07:33:51;74441.56;;;-145.10;30.57
56334;BME280;42240;53.626;55.886;2023-05-15T07:35:25;74463.31;;;-145.10;29.16
56334;BME280;42240;53.626;55.886;2023-05-15T07:36:59;74435.63;;;-145.10;30.11
56334;BME280;42240;53.626;55.886;2023-05-15T07:38:32;74512.72;;;-145.10;29.04
56334;BME280;42240;53.626;55.886;2023-05-15T07:40:06;74585.84;;;-145.10;29.47
56334;BME280;42240;53.626;55.886;2023-05-15T07:41:40;74558.16;;;-145.10;30.18
56334;BME280;42240;53.626;55.886;2023-05-15T07:43:13;74657.00;;;-145.10;29.39
56334;BME280;42240;53.626;55.886;2023-05-15T07:44:50;74597.69;;;-145.10;29.91
56334;BME280;42240;53.626;55.886;2023-05-15T07:46:24;74540.38;;;-145.10;30.29
56334;BME280;42240;53.626;55.886;2023-05-15T07:47:57;74542.34;;;-145.10;28.87
56334;BME280;42240;53.626;55.886;2023-05-15T07:49:31;74463.31;;;-145.10;30.07
56334;BME280;42240;53.626;55.886;2023-05-15T07:51:05;74404.00;;;-145.10;29.42
56334;BME280;42240;53.626;55.886;2023-05-15T07:52:38;74406.00;;;-145.10;29.07
56334;BME280;42240;53.626;55.886;2023-05-15T07:54:14;74394.13;;;-145.10;28.90
56334;BME280;42240;53.626;55.886;2023-05-15T07:55:47;74372.41;;;-145.10;28.62
56334;BME280;42240;53.626;55.886;2023-05-15T07:57:21;74390.19;;;-145.10;28.83
56334;BME280;42240;53.626;55.886;2023-05-15T07:58:55;74417.84;;;-145.10;28.53
56334;BME280;42240;53.626;55.886;2023-05-15T08:00:29;74429.72;;;-145.10;29.06
56334;BME280;42240;53.626;55.886;2023-05-15T08:02:05;74528.53;;;-145.10;28.96
56334;BME280;42240;53.626;55.886;2023-05-15T08:03:38;74572.00;;;-145.10;29.13
56334;BME280;42240;53.626;55.886;2023-05-15T08:05:11;74485.03;;;-145.10;29.22
56334;BME280;42240;53.626;55.886;2023-05-15T08:06:44;74595.72;;;-145.10;28.98
56334;BME280;42240;53.626;55.886;2023-05-15T08:08:17;74690.59;;;-145.10;28.69
56334;BME280;42240;53.626;55.886;2023-05-15T08:09:50;74696.53;;;-145.10;29.66
56334;BME280;42240;53.626;55.886;2023-05-15T08:11:23;74726.16;;;-145.10;29.86
56334;BME280;42240;53.626;55.886;2023-05-15T08:12:57;74647.09;;;-145.10;29.70
56334;BME280;42240;53.626;55.886;2023-05-15T08:14:31;74568.06;;;-145.10;29.25